createdAt,value
2023-04-27T00:01:20.029Z,17.39
2023-04-27T00:03:47.498Z,17.35
2023-04-27T00:06:14.796Z,17.27
2023-04-27T00:08:42.174Z,17.19
2023-04-27T00:11:08.983Z,17.16
2023-04-27T00:13:36.066Z,17.18
2023-04-27T00:16:03.984Z,17.21
2023-04-27T00:18:31.388Z,17.16
2023-04-27T00:20:58.751Z,17.10
2023-04-27T00:23:26.444Z,17.05
2023-04-27T00:25:53.277Z,17.02
2023-04-27T00:28:20.197Z,16.98
2023-04-27T00:30:47.477Z,16.94
2023-04-27T00:33:14.315Z,16.87
2023-04-27T00:35:41.126Z,16.86
2023-04-27T00:38:08.190Z,16.87
2023-04-27T00:40:35.230Z,16.87
2023-04-27T00:43:02.177Z,16.86
2023-04-27T00:45:29.031Z,16.80
2023-04-27T00:47:56.347Z,16.69
2023-04-27T00:50:28.804Z,16.72
2023-04-27T00:52:56.824Z,16.54
2023-04-27T00:55:24.533Z,16.50
2023-04-27T00:57:51.948Z,16.51
2023-04-27T01:00:19.107Z,16.49
2023-04-27T01:02:46.417Z,16.47
2023-04-27T01:05:13.813Z,16.48
2023-04-27T01:07:40.721Z,16.64
2023-04-27T01:10:08.422Z,16.76
2023-04-27T01:12:35.837Z,16.72
2023-04-27T01:15:06.456Z,16.56
2023-04-27T01:17:33.445Z,16.54
2023-04-27T01:20:00.652Z,16.53
2023-04-27T01:22:27.492Z,16.54
2023-04-27T01:24:54.503Z,16.51
2023-04-27T01:27:21.873Z,16.47
2023-04-27T01:29:48.906Z,16.47
2023-04-27T01:32:15.881Z,16.46
2023-04-27T01:34:43.020Z,16.48
2023-04-27T01:37:10.153Z,16.47
2023-04-27T01:39:37.539Z,16.46
2023-04-27T01:42:04.695Z,16.44
2023-04-27T01:44:31.858Z,16.38
2023-04-27T01:46:58.976Z,16.34
2023-04-27T01:49:26.122Z,16.33
2023-04-27T01:51:52.987Z,16.36
2023-04-27T01:54:19.910Z,16.40
2023-04-27T01:56:46.883Z,16.46
2023-04-27T01:59:14.133Z,16.67
2023-04-27T02:01:41.380Z,16.73
2023-04-27T02:04:08.493Z,16.73
2023-04-27T02:06:36.485Z,16.73
2023-04-27T02:09:03.762Z,16.75
2023-04-27T02:11:32.070Z,16.76
2023-04-27T02:13:59.014Z,16.79
2023-04-27T02:16:31.009Z,16.76
2023-04-27T02:18:59.208Z,16.74
2023-04-27T02:21:26.521Z,16.69
2023-04-27T02:23:53.351Z,16.66
2023-04-27T02:26:21.047Z,16.62
2023-04-27T02:28:48.160Z,16.63
2023-04-27T02:31:15.812Z,16.66
2023-04-27T02:33:42.757Z,16.70
2023-04-27T02:36:09.680Z,16.71
2023-04-27T02:38:36.622Z,16.68
2023-04-27T02:41:03.783Z,16.62
2023-04-27T02:43:30.724Z,16.58
2023-04-27T02:45:57.524Z,16.53
2023-04-27T02:48:24.523Z,16.52
2023-04-27T02:50:51.969Z,16.51
2023-04-27T02:53:18.826Z,16.52
2023-04-27T02:55:49.773Z,16.53
2023-04-27T02:58:17.343Z,16.55
2023-04-27T03:00:45.707Z,16.54
2023-04-27T03:03:13.438Z,16.51
2023-04-27T03:05:41.332Z,16.49
2023-04-27T03:08:08.167Z,16.46
2023-04-27T03:10:36.129Z,16.45
2023-04-27T03:13:03.198Z,16.48
2023-04-27T03:15:30.014Z,16.52
2023-04-27T03:17:56.917Z,16.53
2023-04-27T03:20:24.036Z,16.50
2023-04-27T03:22:53.890Z,16.49
2023-04-27T03:25:21.855Z,16.51
2023-04-27T03:27:48.773Z,16.51
2023-04-27T03:30:15.724Z,16.52
2023-04-27T03:32:43.221Z,16.54
2023-04-27T03:35:12.342Z,16.56
2023-04-27T03:37:39.311Z,16.52
2023-04-27T03:40:10.162Z,16.48
2023-04-27T03:42:37.103Z,16.46
2023-04-27T03:45:05.845Z,16.45
2023-04-27T03:47:32.910Z,16.47
2023-04-27T03:50:00.093Z,16.49
2023-04-27T03:52:27.558Z,16.51
2023-04-27T03:54:54.931Z,16.53
2023-04-27T03:57:22.362Z,16.53
2023-04-27T03:59:50.066Z,16.48
2023-04-27T04:02:17.480Z,16.44
2023-04-27T04:04:44.772Z,16.40
2023-04-27T04:07:12.110Z,16.36
2023-04-27T04:09:39.240Z,16.36
2023-04-27T04:12:07.184Z,16.42
2023-04-27T04:14:34.164Z,16.45
2023-04-27T04:17:01.827Z,16.46
2023-04-27T04:20:48.953Z,15.30
2023-04-27T04:23:16.021Z,16.31
2023-04-27T04:25:43.563Z,16.50
2023-04-27T04:28:10.364Z,16.61
2023-04-27T04:30:37.223Z,16.69
2023-04-27T04:33:04.208Z,16.74
2023-04-27T04:35:33.134Z,16.78
2023-04-27T04:38:00.342Z,16.80
2023-04-27T04:40:27.862Z,16.79
2023-04-27T04:42:54.966Z,16.77
2023-04-27T04:45:21.999Z,16.73
2023-04-27T04:47:54.609Z,16.68
2023-04-27T04:50:22.347Z,16.66
2023-04-27T04:52:51.218Z,16.69
2023-04-27T04:55:18.521Z,16.67
2023-04-27T04:57:45.543Z,16.61
2023-04-27T05:00:13.966Z,16.54
2023-04-27T05:02:41.606Z,16.48
2023-04-27T05:05:09.653Z,16.45
2023-04-27T05:07:36.631Z,16.45
2023-04-27T05:10:03.868Z,16.49
2023-04-27T05:12:31.317Z,16.54
2023-04-27T05:14:58.262Z,16.56
2023-04-27T05:17:25.441Z,16.57
2023-04-27T05:19:52.389Z,16.54
2023-04-27T05:22:19.221Z,16.49
2023-04-27T05:24:46.461Z,16.46
2023-04-27T05:27:14.902Z,16.45
2023-04-27T05:29:42.410Z,16.46
2023-04-27T05:32:09.990Z,16.47
2023-04-27T05:34:37.135Z,16.44
2023-04-27T05:37:04.067Z,16.43
2023-04-27T05:39:30.925Z,16.44
2023-04-27T05:41:57.857Z,16.43
2023-04-27T05:44:28.622Z,16.44
2023-04-27T05:46:58.400Z,16.47
2023-04-27T05:49:25.228Z,16.48
2023-04-27T05:51:52.307Z,16.47
2023-04-27T05:54:19.159Z,16.44
2023-04-27T05:56:46.085Z,16.39
2023-04-27T05:59:13.736Z,16.39
2023-04-27T06:01:40.909Z,16.34
2023-04-27T06:04:08.398Z,16.29
2023-04-27T06:06:35.511Z,16.30
2023-04-27T06:09:02.520Z,16.30
2023-04-27T06:11:29.509Z,16.27
2023-04-27T06:13:56.636Z,16.21
2023-04-27T06:16:23.878Z,16.19
2023-04-27T06:18:50.966Z,16.19
2023-04-27T06:21:18.068Z,16.17
2023-04-27T06:23:44.956Z,16.17
2023-04-27T06:26:11.804Z,16.24
2023-04-27T06:28:38.754Z,16.33
2023-04-27T06:31:06.585Z,16.37
2023-04-27T06:33:33.808Z,16.34
2023-04-27T06:36:02.366Z,16.29
2023-04-27T06:38:29.822Z,16.20
2023-04-27T06:40:57.085Z,16.09
2023-04-27T06:43:24.224Z,16.06
2023-04-27T06:45:51.366Z,16.09
2023-04-27T06:48:18.613Z,16.10
2023-04-27T06:50:45.778Z,16.06
2023-04-27T06:53:13.228Z,16.04
2023-04-27T06:55:42.438Z,16.04
2023-04-27T06:58:10.960Z,16.10
2023-04-27T07:00:37.865Z,16.19
2023-04-27T07:03:04.917Z,16.30
2023-04-27T07:05:31.960Z,16.35
2023-04-27T07:15:21.690Z,16.39
2023-04-27T07:17:48.736Z,16.43
2023-04-27T07:20:16.965Z,16.49
2023-04-27T07:22:43.891Z,16.50
2023-04-27T07:25:11.567Z,16.53
2023-04-27T07:27:38.632Z,16.57
2023-04-27T07:30:09.495Z,16.56
2023-04-27T07:32:37.429Z,16.54
2023-04-27T07:35:06.072Z,16.55
2023-04-27T07:37:33.013Z,16.58
2023-04-27T07:39:59.985Z,16.60
2023-04-27T07:42:26.909Z,16.63
2023-04-27T07:44:54.427Z,16.66
2023-04-27T07:47:22.095Z,16.69
2023-04-27T07:49:49.387Z,16.73
2023-04-27T07:52:16.597Z,16.78
2023-04-27T07:54:43.599Z,16.80
2023-04-27T07:57:11.844Z,16.77
2023-04-27T07:59:39.120Z,16.72
2023-04-27T08:02:18.584Z,16.69
2023-04-27T08:04:48.164Z,16.65
2023-04-27T08:07:17.457Z,16.70
2023-04-27T08:09:44.718Z,16.79
2023-04-27T08:12:12.074Z,16.90
2023-04-27T08:14:39.120Z,16.98
2023-04-27T08:17:06.530Z,17.01
2023-04-27T08:19:33.732Z,17.00
2023-04-27T08:22:01.039Z,16.97
2023-04-27T08:24:27.879Z,16.97
2023-04-27T08:26:54.682Z,17.04
2023-04-27T08:29:27.840Z,17.11
2023-04-27T08:31:58.381Z,17.20
2023-04-27T08:34:26.381Z,17.25
2023-04-27T08:36:54.236Z,17.26
2023-04-27T08:39:21.115Z,17.29
2023-04-27T08:41:48.034Z,17.33
2023-04-27T08:44:15.000Z,17.34
2023-04-27T08:46:41.964Z,17.31
2023-04-27T08:49:10.123Z,17.30
2023-04-27T08:51:37.078Z,17.31
2023-04-27T08:54:04.208Z,17.32
2023-04-27T08:56:31.302Z,17.31
2023-04-27T08:58:59.052Z,17.27
2023-04-27T09:01:27.735Z,17.25
2023-04-27T09:03:59.218Z,17.28
2023-04-27T09:06:36.445Z,17.29
2023-04-27T09:09:03.958Z,17.22
2023-04-27T09:11:32.710Z,17.19
2023-04-27T09:14:00.664Z,17.11
2023-04-27T09:16:30.406Z,16.97
2023-04-27T09:18:59.477Z,16.83
2023-04-27T09:21:29.641Z,16.73
2023-04-27T09:23:56.891Z,16.68
2023-04-27T09:26:25.323Z,16.65
2023-04-27T09:28:53.572Z,16.66
2023-04-27T09:31:20.930Z,16.72
2023-04-27T09:33:55.023Z,16.72
2023-04-27T09:36:22.056Z,16.63
2023-04-27T09:38:49.793Z,16.55
2023-04-27T09:41:16.734Z,16.50
2023-04-27T09:43:45.962Z,16.56
2023-04-27T09:46:13.904Z,16.63
2023-04-27T09:48:41.269Z,16.68
2023-04-27T09:51:08.828Z,16.66
2023-04-27T09:53:40.789Z,16.65
2023-04-27T09:56:16.731Z,16.55
2023-04-27T09:59:02.126Z,16.44
2023-04-27T10:01:46.457Z,16.40
2023-04-27T10:04:53.520Z,16.43
2023-04-27T10:07:20.515Z,16.47
2023-04-27T10:09:49.420Z,16.44
2023-04-27T10:12:21.408Z,16.40
2023-04-27T10:14:58.550Z,16.40
2023-04-27T10:17:30.091Z,16.47
2023-04-27T10:20:05.458Z,16.50
2023-04-27T10:22:45.608Z,16.53
2023-04-27T10:25:21.795Z,16.53
2023-04-27T10:28:02.075Z,16.51
2023-04-27T10:30:37.140Z,16.53
2023-04-27T10:33:11.164Z,16.49
2023-04-27T10:35:42.455Z,16.42
2023-04-27T10:38:16.815Z,16.42
2023-04-27T10:40:57.514Z,16.39
2023-04-27T10:43:29.079Z,16.32
2023-04-27T10:45:56.009Z,16.26
2023-04-27T10:48:23.098Z,16.23
2023-04-27T10:50:51.927Z,16.22
2023-04-27T10:53:18.925Z,16.27
2023-04-27T10:55:45.878Z,16.33
2023-04-27T10:58:12.851Z,16.34
2023-04-27T11:00:45.013Z,16.38
2023-04-27T11:03:22.118Z,16.41
2023-04-27T11:05:50.254Z,16.46
2023-04-27T11:08:18.854Z,16.52
2023-04-27T11:10:50.556Z,16.61
2023-04-27T11:13:19.479Z,16.62
2023-04-27T11:15:47.583Z,16.61
2023-04-27T11:18:15.961Z,16.60
2023-04-27T11:20:44.578Z,16.58
2023-04-27T11:23:11.677Z,16.61
2023-04-27T11:25:39.019Z,16.70
2023-04-27T11:28:06.519Z,16.79
2023-04-27T11:30:33.735Z,16.83
2023-04-27T11:33:08.518Z,16.77
2023-04-27T11:35:35.820Z,16.71
2023-04-27T11:38:03.319Z,16.64
2023-04-27T11:40:31.243Z,16.63
2023-04-27T11:42:59.418Z,16.69
2023-04-27T11:45:28.456Z,16.70
2023-04-27T11:47:55.416Z,16.72
2023-04-27T11:50:24.359Z,16.79
2023-04-27T11:52:51.865Z,16.85
2023-04-27T11:55:21.389Z,16.85
2023-04-27T11:57:48.482Z,16.87
2023-04-27T12:00:16.792Z,16.90
2023-04-27T12:02:44.134Z,16.92
2023-04-27T12:05:13.534Z,16.97
2023-04-27T12:07:41.619Z,17.02
2023-04-27T12:10:09.423Z,17.03
2023-04-27T12:12:36.305Z,17.04
2023-04-27T12:15:03.489Z,16.99
2023-04-27T12:17:30.527Z,16.86
2023-04-27T12:19:57.543Z,16.72
2023-04-27T12:22:24.558Z,16.68
2023-04-27T12:24:51.439Z,16.67
2023-04-27T12:27:18.626Z,16.67
2023-04-27T12:29:45.645Z,16.67
2023-04-27T12:32:12.590Z,16.63
2023-04-27T12:34:39.759Z,16.64
2023-04-27T12:37:07.395Z,16.71
2023-04-27T12:39:34.448Z,16.76
2023-04-27T12:42:01.938Z,16.76
2023-04-27T12:44:29.059Z,16.76
2023-04-27T12:46:56.439Z,16.77
2023-04-27T12:49:24.191Z,16.78
2023-04-27T12:51:52.125Z,16.73
2023-04-27T12:54:19.013Z,16.74
2023-04-27T12:56:46.151Z,16.74
2023-04-27T12:59:13.305Z,16.76
2023-04-27T13:01:40.161Z,16.70
2023-04-27T13:04:07.278Z,16.60
2023-04-27T13:06:34.564Z,16.53
2023-04-27T13:09:01.696Z,16.58
2023-04-27T13:11:28.665Z,16.69
2023-04-27T13:13:55.484Z,16.75
2023-04-27T13:16:25.399Z,16.74
2023-04-27T13:18:53.796Z,16.69
2023-04-27T13:21:20.959Z,16.64
2023-04-27T13:23:48.203Z,16.62
2023-04-27T13:26:16.002Z,16.64
2023-04-27T13:28:42.917Z,16.67
2023-04-27T13:31:09.868Z,16.70
2023-04-27T13:33:41.595Z,16.69
2023-04-27T13:36:12.235Z,16.72
2023-04-27T13:38:39.478Z,16.81
2023-04-27T13:41:06.866Z,16.88
2023-04-27T13:43:33.913Z,16.93
2023-04-27T13:46:03.939Z,17.01
2023-04-27T13:48:31.212Z,17.07
2023-04-27T13:50:58.367Z,17.11
2023-04-27T13:53:26.162Z,17.15
2023-04-27T13:55:57.004Z,17.18
2023-04-27T13:58:25.807Z,17.25
2023-04-27T14:00:53.916Z,17.23
2023-04-27T14:03:21.818Z,17.18
2023-04-27T14:05:51.164Z,17.17
2023-04-27T14:08:18.326Z,17.18
2023-04-27T14:10:45.780Z,17.19
2023-04-27T14:13:12.937Z,17.17
2023-04-27T14:15:40.093Z,17.12
2023-04-27T14:18:08.147Z,17.04
2023-04-27T14:20:36.049Z,16.95
2023-04-27T14:23:04.199Z,16.90
2023-04-27T14:25:33.109Z,16.88
2023-04-27T14:28:04.615Z,16.92
2023-04-27T14:30:32.625Z,17.02
2023-04-27T14:32:59.742Z,17.07
2023-04-27T14:35:27.737Z,17.08
2023-04-27T14:37:57.146Z,17.06
2023-04-27T14:40:24.427Z,17.02
2023-04-27T14:42:51.586Z,16.99
2023-04-27T14:45:19.127Z,16.99
2023-04-27T14:47:46.172Z,17.05
2023-04-27T14:50:13.585Z,17.12
2023-04-27T14:52:40.583Z,17.12
2023-04-27T14:55:08.187Z,17.09
2023-04-27T14:57:36.922Z,17.04
2023-04-27T15:00:10.046Z,17.05
2023-04-27T15:02:37.969Z,17.08
2023-04-27T15:05:06.075Z,17.12
2023-04-27T15:07:33.309Z,17.15
2023-04-27T15:10:00.270Z,17.18
2023-04-27T15:12:27.428Z,17.18
2023-04-27T15:14:54.456Z,17.18
2023-04-27T15:17:21.396Z,17.21
2023-04-27T15:19:48.574Z,17.25
2023-04-27T15:22:15.520Z,17.25
2023-04-27T15:24:42.325Z,17.30
2023-04-27T15:27:10.028Z,17.34
2023-04-27T15:29:37.133Z,17.39
2023-04-27T15:32:04.454Z,17.46
2023-04-27T15:34:31.451Z,17.51
2023-04-27T15:36:58.435Z,17.52
2023-04-27T15:39:25.475Z,17.52
2023-04-27T15:41:52.703Z,17.51
2023-04-27T15:44:19.672Z,17.51
2023-04-27T15:46:46.637Z,17.53
2023-04-27T15:49:13.890Z,17.52
2023-04-27T15:51:41.105Z,17.46
2023-04-27T15:54:08.151Z,17.42
2023-04-27T15:56:35.046Z,17.38
2023-04-27T15:59:02.223Z,17.29
2023-04-27T16:01:29.111Z,17.22
2023-04-27T16:03:56.928Z,17.14
2023-04-27T16:06:34.897Z,17.06
2023-04-27T16:09:03.797Z,16.99
2023-04-27T16:11:31.716Z,16.97
2023-04-27T16:13:59.657Z,16.99
2023-04-27T16:16:27.279Z,16.97
2023-04-27T16:18:54.438Z,16.95
2023-04-27T16:21:21.520Z,16.93
2023-04-27T16:23:48.620Z,16.90
2023-04-27T16:26:15.761Z,16.90
2023-04-27T16:28:42.717Z,16.93
2023-04-27T16:31:10.108Z,16.94
2023-04-27T16:33:36.997Z,16.98
2023-04-27T16:38:50.873Z,15.91
2023-04-27T16:41:17.930Z,16.94
2023-04-27T16:43:44.888Z,17.10
2023-04-27T16:46:11.991Z,17.15
2023-04-27T16:48:39.072Z,17.18
2023-04-27T16:51:06.842Z,17.19
2023-04-27T16:53:33.685Z,17.18
2023-04-27T16:56:01.603Z,17.13
2023-04-27T16:58:29.634Z,17.08
2023-04-27T17:00:57.077Z,17.02
2023-04-27T17:03:24.116Z,17.01
2023-04-27T17:05:51.393Z,17.03
2023-04-27T17:08:18.289Z,17.05
2023-04-27T17:10:45.683Z,17.03
2023-04-27T17:13:14.920Z,17.01
2023-04-27T17:15:41.866Z,17.02
2023-04-27T17:18:09.871Z,17.04
2023-04-27T17:20:38.851Z,17.03
2023-04-27T17:23:07.311Z,17.01
2023-04-27T17:25:34.330Z,16.98
2023-04-27T17:28:01.739Z,16.96
2023-04-27T17:30:28.974Z,16.97
2023-04-27T17:32:56.065Z,16.98
2023-04-27T17:35:23.101Z,17.01
2023-04-27T17:37:50.086Z,17.02
2023-04-27T17:40:21.073Z,17.08
2023-04-27T17:42:48.493Z,17.13
2023-04-27T17:45:16.680Z,17.12
2023-04-27T17:47:43.714Z,17.07
2023-04-27T17:50:11.271Z,17.07
2023-04-27T17:52:38.947Z,17.03
2023-04-27T17:55:06.753Z,17.00
2023-04-27T17:57:33.969Z,17.00
2023-04-27T18:00:01.179Z,16.98
2023-04-27T18:02:28.367Z,17.01
2023-04-27T18:04:56.027Z,17.04
2023-04-27T18:07:23.707Z,17.07
2023-04-27T18:09:50.847Z,17.10
2023-04-27T18:12:17.700Z,17.10
2023-04-27T18:14:44.626Z,17.09
2023-04-27T18:17:11.690Z,17.13
2023-04-27T18:19:38.957Z,17.18
2023-04-27T18:22:06.089Z,17.24
2023-04-27T18:24:33.096Z,17.29
2023-04-27T18:27:00.236Z,17.33
2023-04-27T18:29:27.376Z,17.39
2023-04-27T18:31:54.271Z,17.47
2023-04-27T18:34:21.248Z,17.55
2023-04-27T18:36:52.058Z,17.59
2023-04-27T18:39:19.622Z,17.61
2023-04-27T18:41:46.596Z,17.61
2023-04-27T18:44:14.181Z,17.64
2023-04-27T18:46:41.505Z,17.65
2023-04-27T18:49:08.476Z,17.65
2023-04-27T18:51:35.888Z,17.66
2023-04-27T18:54:03.054Z,17.68
2023-04-27T18:56:31.136Z,17.69
2023-04-27T18:58:58.170Z,17.71
2023-04-27T19:01:26.210Z,17.72
2023-04-27T19:03:53.713Z,17.72
2023-04-27T19:06:21.414Z,17.75
2023-04-27T19:08:48.620Z,17.81
2023-04-27T19:11:15.699Z,17.85
2023-04-27T19:13:43.984Z,17.85
2023-04-27T19:16:11.840Z,17.80
2023-04-27T19:18:40.620Z,17.78
2023-04-27T19:21:09.972Z,17.73
2023-04-27T19:23:37.411Z,17.68
2023-04-27T19:26:12.407Z,17.65
2023-04-27T19:28:40.572Z,17.62
2023-04-27T19:31:07.813Z,17.59
2023-04-27T19:33:34.815Z,17.56
2023-04-27T19:36:01.826Z,17.56
2023-04-27T19:38:28.649Z,17.58
2023-04-27T19:40:55.588Z,17.63
2023-04-27T19:43:22.456Z,17.69
2023-04-27T19:45:49.504Z,17.72
2023-04-27T19:48:16.812Z,17.72
2023-04-27T19:50:44.139Z,17.71
2023-04-27T19:53:11.408Z,17.70
2023-04-27T19:55:40.330Z,17.68
2023-04-27T19:58:07.146Z,17.67
2023-04-27T20:00:34.469Z,17.65
2023-04-27T20:03:01.734Z,17.63
2023-04-27T20:05:28.956Z,17.65
2023-04-27T20:07:56.325Z,17.66
2023-04-27T20:10:23.287Z,17.68
2023-04-27T20:12:56.804Z,17.72
2023-04-27T20:15:24.948Z,17.76
2023-04-27T20:17:53.011Z,17.77
2023-04-27T20:20:20.975Z,17.77
2023-04-27T20:22:48.043Z,17.77
2023-04-27T20:25:15.046Z,17.77
2023-04-27T20:27:42.141Z,17.78
2023-04-27T20:30:09.918Z,17.75
2023-04-27T20:32:39.572Z,17.71
2023-04-27T20:35:11.631Z,17.71
2023-04-27T20:37:40.114Z,17.67
2023-04-27T20:40:08.290Z,17.66
2023-04-27T20:42:36.179Z,17.67
2023-04-27T20:45:05.721Z,17.73
2023-04-27T20:47:32.678Z,17.79
2023-04-27T20:49:59.734Z,17.80
2023-04-27T20:52:30.575Z,17.81
2023-04-27T20:54:58.972Z,17.78
2023-04-27T20:57:25.879Z,17.76
2023-04-27T20:59:52.824Z,17.74
2023-04-27T21:02:20.312Z,17.72
2023-04-27T21:04:47.784Z,17.68
2023-04-27T21:07:14.691Z,17.66
2023-04-27T21:09:41.944Z,17.64
2023-04-27T21:12:09.232Z,17.64
2023-04-27T21:14:36.572Z,17.64
2023-04-27T21:17:03.794Z,17.64
2023-04-27T21:19:30.863Z,17.61
2023-04-27T21:21:57.696Z,17.56
2023-04-27T21:24:25.071Z,17.53
2023-04-27T21:26:52.308Z,17.53
2023-04-27T21:29:19.353Z,17.53
2023-04-27T21:31:46.415Z,17.52
2023-04-27T21:34:13.513Z,17.50
2023-04-27T21:36:40.728Z,17.47
2023-04-27T21:39:07.867Z,17.45
2023-04-27T21:41:35.228Z,17.44
2023-04-27T21:44:02.301Z,17.41
2023-04-27T21:46:29.210Z,17.40
2023-04-27T21:48:56.026Z,17.40
2023-04-27T21:51:22.933Z,17.39
2023-04-27T21:53:49.729Z,17.38
2023-04-27T21:56:16.533Z,17.36
2023-04-27T21:58:43.534Z,17.35
2023-04-27T22:01:11.586Z,17.33
2023-04-27T22:03:39.154Z,17.28
2023-04-27T22:06:07.749Z,17.24
2023-04-27T22:08:35.380Z,17.17
2023-04-27T22:11:02.358Z,17.11
2023-04-27T22:13:29.298Z,17.07
2023-04-27T22:15:56.218Z,17.03
2023-04-27T22:18:23.204Z,16.98
2023-04-27T22:20:50.194Z,16.95
2023-04-27T22:23:17.092Z,16.95
2023-04-27T22:25:44.254Z,16.91
2023-04-27T22:28:11.106Z,16.92
2023-04-27T22:30:38.560Z,16.93
2023-04-27T22:33:05.414Z,16.91
2023-04-27T22:35:33.462Z,16.89
2023-04-27T22:38:00.656Z,16.89
2023-04-27T22:40:27.869Z,16.89
2023-04-27T22:42:55.271Z,16.89
2023-04-27T22:45:23.105Z,16.88
2023-04-27T22:47:50.319Z,16.83
2023-04-27T22:50:17.502Z,16.81
2023-04-27T22:52:44.384Z,16.81
2023-04-27T22:55:11.673Z,16.79
2023-04-27T22:57:39.091Z,16.79
2023-04-27T23:05:53.020Z,13.95
2023-04-27T23:08:24.238Z,16.24
2023-04-27T23:10:52.786Z,16.49
2023-04-27T23:13:27.089Z,16.55
2023-04-27T23:15:53.940Z,16.58
2023-04-27T23:18:20.685Z,16.58
2023-04-27T23:20:52.944Z,16.56
2023-04-27T23:23:20.417Z,16.57
2023-04-27T23:25:47.480Z,16.56
2023-04-27T23:28:14.470Z,16.55
2023-04-27T23:30:41.209Z,16.55
2023-04-27T23:33:07.994Z,16.54
2023-04-27T23:35:35.046Z,16.54
2023-04-27T23:38:01.996Z,16.51
2023-04-27T23:40:29.016Z,16.50
2023-04-27T23:42:56.087Z,16.51
2023-04-27T23:45:23.067Z,16.52
2023-04-27T23:47:50.294Z,16.51
2023-04-27T23:50:17.239Z,16.48
2023-04-27T23:52:44.799Z,16.44
2023-04-27T23:55:11.735Z,16.42
2023-04-27T23:57:38.923Z,16.43
